Time;durP1;ratioP1;P1;durP2;ratioP2;P2;SDS_P1;SDS_P2;PMS_P1;PMS_P2;Temp;Humidity;BMP_temperature;BMP_pressure;BME280_temperature;BME280_humidity;BME280_pressure;Samples;Min_cycle;Max_cycle;Signal;HPM_P1;HPM_P2
2021/04/17 00:01:33;;;;;;;7.00;6.30;;;7.70;99.90;;;;;;5014164;28;21192;-71
2021/04/17 00:03:58;;;;;;;7.77;7.07;;;7.70;99.90;;;;;;5012183;28;20546;-70
2021/04/17 00:06:24;;;;;;;7.00;6.33;;;7.70;99.90;;;;;;5013005;28;20459;-70
2021/04/17 00:08:50;;;;;;;8.03;6.40;;;7.60;99.90;;;;;;5016523;28;20278;-71
2021/04/17 00:11:16;;;;;;;6.73;6.10;;;7.60;99.90;;;;;;5014865;28;20219;-71
2021/04/17 00:13:42;;;;;;;7.17;6.47;;;7.60;99.90;;;;;;5010876;28;20266;-70
2021/04/17 00:16:08;;;;;;;8.10;6.27;;;7.60;99.90;;;;;;5014831;28;20459;-69
2021/04/17 00:18:34;;;;;;;7.50;6.00;;;7.60;99.90;;;;;;5016667;28;20815;-69
2021/04/17 00:20:59;;;;;;;9.93;7.40;;;7.60;99.90;;;;;;5014476;28;20217;-69
2021/04/17 00:23:25;;;;;;;7.40;6.70;;;7.50;99.90;;;;;;5016125;28;20762;-70
2021/04/17 00:25:50;;;;;;;7.43;6.73;;;7.50;99.90;;;;;;5012588;28;20316;-70
2021/04/17 00:28:16;;;;;;;8.10;7.33;;;7.40;99.90;;;;;;5016247;28;20196;-68
2021/04/17 00:30:45;;;;;;;7.80;7.00;;;7.40;99.90;;;;;;5020083;28;22072;-70
2021/04/17 00:33:10;;;;;;;7.50;6.80;;;7.30;99.90;;;;;;5006179;28;20612;-71
2021/04/17 00:35:36;;;;;;;7.10;6.40;;;7.30;99.90;;;;;;5009390;28;20480;-71
2021/04/17 00:38:02;;;;;;;7.10;6.40;;;7.30;99.90;;;;;;5014001;28;20189;-72
2021/04/17 00:40:28;;;;;;;8.30;7.50;;;7.20;99.90;;;;;;5008422;28;20204;-70
2021/04/17 00:42:53;;;;;;;8.23;7.40;;;7.20;99.90;;;;;;5016710;28;20531;-72
2021/04/17 00:45:19;;;;;;;7.63;6.83;;;7.20;99.90;;;;;;5013810;28;20304;-71
2021/04/17 00:47:45;;;;;;;7.70;7.00;;;7.10;99.90;;;;;;5013402;28;20259;-72
2021/04/17 00:50:12;;;;;;;8.10;7.40;;;7.10;99.90;;;;;;5013432;28;20838;-71
2021/04/17 00:52:40;;;;;;;8.57;7.50;;;7.00;99.90;;;;;;5012371;28;20997;-68
2021/04/17 00:55:07;;;;;;;7.37;6.57;;;7.00;99.90;;;;;;5011666;28;20452;-70
2021/04/17 00:57:33;;;;;;;8.27;7.37;;;7.00;99.90;;;;;;5014617;28;20435;-69
2021/04/17 00:59:59;;;;;;;7.87;7.07;;;6.90;99.90;;;;;;5013134;28;20530;-72
2021/04/17 01:02:29;;;;;;;11.33;7.90;;;6.90;99.90;;;;;;5015560;28;20659;-71
2021/04/17 01:04:56;;;;;;;11.53;7.10;;;6.80;99.90;;;;;;5014357;28;20723;-72
2021/04/17 01:07:49;;;;;;;9.07;7.60;;;6.80;99.90;;;;;;5011134;28;20435;-70
2021/04/17 01:10:30;;;;;;;8.30;7.50;;;6.80;99.90;;;;;;5018230;28;20450;-70
2021/04/17 01:12:57;;;;;;;8.23;7.43;;;6.80;99.90;;;;;;5016603;28;20428;-71
2021/04/17 01:15:24;;;;;;;9.33;7.73;;;6.80;99.90;;;;;;5014187;28;20468;-71
2021/04/17 01:17:52;;;;;;;9.27;7.57;;;6.80;99.90;;;;;;5013437;28;20435;-71
2021/04/17 01:20:20;;;;;;;8.80;6.30;;;6.80;99.90;;;;;;5014457;28;20463;-69
2021/04/17 01:22:56;;;;;;;8.27;7.17;;;6.70;99.90;;;;;;5010416;28;20858;-72
2021/04/17 01:25:24;;;;;;;10.60;7.50;;;6.70;99.90;;;;;;5013861;28;20494;-71
2021/04/17 01:27:50;;;;;;;10.90;7.80;;;6.70;99.90;;;;;;5015770;28;20423;-69
2021/04/17 01:30:20;;;;;;;8.30;7.40;;;6.70;99.90;;;;;;5015043;28;20467;-71
2021/04/17 01:32:49;;;;;;;9.10;7.27;;;6.70;99.90;;;;;;5011216;28;20192;-72
2021/04/17 01:35:18;;;;;;;7.77;7.10;;;6.60;99.90;;;;;;5018195;28;20493;-70
2021/04/17 01:37:53;;;;;;;6.87;6.23;;;6.60;99.90;;;;;;5013027;28;20452;-70
2021/04/17 01:40:27;;;;;;;9.63;8.17;;;6.60;99.90;;;;;;5013232;28;20772;-71
2021/04/17 01:42:53;;;;;;;8.20;7.37;;;6.60;99.90;;;;;;5014640;28;20517;-71
2021/04/17 01:45:22;;;;;;;7.70;6.83;;;6.60;99.90;;;;;;5012311;28;20543;-70
2021/04/17 01:47:50;;;;;;;8.17;7.27;;;6.50;99.90;;;;;;5011642;28;20428;-71
2021/04/17 01:50:17;;;;;;;7.93;7.17;;;6.50;99.90;;;;;;5012263;28;20464;-70
2021/04/17 01:52:45;;;;;;;8.27;6.80;;;6.40;99.90;;;;;;5011902;28;20432;-70
2021/04/17 01:55:13;;;;;;;8.17;7.30;;;6.40;99.90;;;;;;5013886;28;20558;-70
2021/04/17 01:57:39;;;;;;;8.63;7.53;;;6.40;99.90;;;;;;5012368;28;20452;-70
2021/04/17 02:00:07;;;;;;;7.90;7.20;;;6.30;99.90;;;;;;5018270;28;20840;-71
2021/04/17 02:02:32;;;;;;;8.83;7.90;;;6.30;99.90;;;;;;5013822;28;20491;-71
2021/04/17 02:04:58;;;;;;;8.63;7.73;;;6.20;99.90;;;;;;5011797;28;20467;-70
2021/04/17 02:07:24;;;;;;;11.67;8.50;;;6.10;99.90;;;;;;5013762;28;20640;-72
2021/04/17 02:09:49;;;;;;;7.60;6.80;;;6.10;99.90;;;;;;5011713;28;20196;-70
2021/04/17 02:12:15;;;;;;;10.83;7.60;;;6.10;99.90;;;;;;5010745;28;20204;-71
2021/04/17 02:14:41;;;;;;;8.70;7.23;;;6.00;99.90;;;;;;5012566;28;20209;-70
2021/04/17 02:17:13;;;;;;;8.90;7.63;;;6.00;99.90;;;;;;5016467;28;20200;-70
2021/04/17 02:19:54;;;;;;;10.73;7.50;;;6.00;99.90;;;;;;5010163;28;20189;-71
2021/04/17 02:22:23;;;;;;;9.40;8.47;;;6.10;99.90;;;;;;5011519;28;20459;-70
2021/04/17 02:24:50;;;;;;;9.67;7.40;;;6.00;99.90;;;;;;5013704;28;20513;-71
2021/04/17 02:27:16;;;;;;;8.60;7.70;;;6.00;99.90;;;;;;5013852;28;20439;-71
2021/04/17 02:29:41;;;;;;;8.70;7.33;;;6.00;99.90;;;;;;5011781;28;20440;-70
2021/04/17 02:32:14;;;;;;;8.37;7.57;;;6.00;99.90;;;;;;5016071;28;20467;-70
2021/04/17 02:34:41;;;;;;;10.33;8.70;;;6.00;99.90;;;;;;5010567;28;20224;-71
2021/04/17 02:37:06;;;;;;;9.30;7.50;;;6.00;99.90;;;;;;5015538;28;20446;-71
2021/04/17 02:39:32;;;;;;;10.60;8.17;;;6.00;99.90;;;;;;5011900;28;20452;-71
2021/04/17 02:41:58;;;;;;;10.30;6.70;;;6.00;99.90;;;;;;5016141;28;20299;-71
2021/04/17 02:44:24;;;;;;;9.70;7.17;;;6.00;99.90;;;;;;5014146;28;20235;-70
2021/04/17 02:46:49;;;;;;;8.83;7.70;;;6.00;99.90;;;;;;5011242;28;20268;-70
2021/04/17 02:49:15;;;;;;;9.30;8.00;;;6.00;99.90;;;;;;5012843;28;20606;-70
2021/04/17 02:51:41;;;;;;;9.63;7.93;;;6.10;99.90;;;;;;5012406;28;20352;-71
2021/04/17 02:54:06;;;;;;;9.60;7.33;;;6.00;99.90;;;;;;5010098;28;20555;-70
2021/04/17 02:56:32;;;;;;;7.90;7.20;;;6.00;99.90;;;;;;5013122;28;20213;-69
2021/04/17 02:58:58;;;;;;;9.57;8.00;;;6.00;99.90;;;;;;5009248;28;20554;-70
2021/04/17 03:01:24;;;;;;;9.43;8.37;;;5.90;99.90;;;;;;5011684;28;20745;-70
2021/04/17 03:03:49;;;;;;;10.30;8.57;;;5.90;99.90;;;;;;5011902;28;20245;-69
2021/04/17 03:06:15;;;;;;;8.33;7.53;;;5.90;99.90;;;;;;5011682;28;20208;-71
2021/04/17 03:08:41;;;;;;;9.90;8.37;;;5.90;99.90;;;;;;5010181;28;20185;-71
2021/04/17 03:11:06;;;;;;;9.00;8.10;;;5.90;99.90;;;;;;5009798;28;20659;-69
2021/04/17 03:13:32;;;;;;;9.90;8.83;;;5.90;99.90;;;;;;5010689;28;20199;-69
2021/04/17 03:15:57;;;;;;;10.93;8.80;;;5.90;99.90;;;;;;5014018;28;20213;-71
2021/04/17 03:18:23;;;;;;;10.33;8.40;;;5.90;99.90;;;;;;5014167;28;20184;-70
2021/04/17 03:20:49;;;;;;;8.70;7.80;;;5.80;99.90;;;;;;5016721;28;20219;-72
2021/04/17 03:23:14;;;;;;;12.40;9.13;;;5.80;99.90;;;;;;5013147;28;20203;-69
2021/04/17 03:25:40;;;;;;;10.80;8.90;;;5.80;99.90;;;;;;5016662;28;20215;-70
2021/04/17 03:28:06;;;;;;;10.10;8.27;;;5.80;99.90;;;;;;5012595;28;20197;-70
2021/04/17 03:30:32;;;;;;;10.27;8.87;;;5.80;99.90;;;;;;5016235;28;20811;-71
2021/04/17 03:33:00;;;;;;;11.13;8.80;;;5.80;99.90;;;;;;5008029;28;20196;-72
2021/04/17 03:35:27;;;;;;;10.97;9.30;;;5.70;99.90;;;;;;5009636;28;20992;-71
2021/04/17 03:37:53;;;;;;;8.40;7.50;;;5.70;99.90;;;;;;5017897;28;20446;-70
2021/04/17 03:40:19;;;;;;;9.33;8.33;;;5.70;99.90;;;;;;5017702;28;20483;-72
2021/04/17 03:42:45;;;;;;;10.83;8.23;;;5.70;99.90;;;;;;5014916;28;20348;-72
2021/04/17 03:45:11;;;;;;;12.20;8.60;;;5.60;99.90;;;;;;5013205;28;20972;-71
2021/04/17 03:47:38;;;;;;;10.67;8.20;;;5.60;99.90;;;;;;5015989;28;20197;-72
2021/04/17 03:50:06;;;;;;;10.03;7.93;;;5.60;99.90;;;;;;5017415;28;20446;-72
2021/04/17 03:52:32;;;;;;;11.67;8.50;;;5.60;99.90;;;;;;5018347;28;20440;-69
2021/04/17 03:54:57;;;;;;;10.63;8.97;;;5.60;99.90;;;;;;5016279;28;20469;-70
2021/04/17 03:57:23;;;;;;;9.70;8.57;;;5.60;99.90;;;;;;5012586;28;20216;-69
2021/04/17 03:59:48;;;;;;;10.03;9.03;;;5.60;99.90;;;;;;5014598;28;20659;-70
2021/04/17 04:02:14;;;;;;;12.83;9.00;;;5.60;99.90;;;;;;5015953;28;20227;-70
2021/04/17 04:04:40;;;;;;;10.60;8.63;;;5.50;99.90;;;;;;5009687;28;20220;-71
2021/04/17 04:07:06;;;;;;;9.80;8.80;;;5.60;99.90;;;;;;5016471;28;20195;-69
2021/04/17 04:09:32;;;;;;;11.67;9.23;;;5.60;99.90;;;;;;5010454;28;20766;-71
2021/04/17 04:11:58;;;;;;;10.00;9.00;;;5.60;99.90;;;;;;5015652;28;20431;-71
2021/04/17 04:14:25;;;;;;;10.17;9.00;;;5.50;99.90;;;;;;5012712;28;20435;-71
2021/04/17 04:16:50;;;;;;;10.47;9.17;;;5.50;99.90;;;;;;5011418;28;20463;-71
2021/04/17 04:19:16;;;;;;;10.57;8.70;;;5.50;99.90;;;;;;5016368;28;20509;-69
2021/04/17 04:21:42;;;;;;;14.37;8.23;;;5.40;99.90;;;;;;5015057;28;20208;-69
2021/04/17 04:24:08;;;;;;;11.90;8.53;;;5.40;99.90;;;;;;5015010;28;20189;-70
2021/04/17 04:26:35;;;;;;;11.87;8.70;;;5.30;99.90;;;;;;5013861;28;20456;-70
2021/04/17 04:29:00;;;;;;;13.10;9.07;;;5.30;99.90;;;;;;5020225;28;20427;-71
2021/04/17 04:31:26;;;;;;;10.40;8.27;;;5.40;99.90;;;;;;5014736;28;20566;-70
2021/04/17 04:33:52;;;;;;;9.57;8.57;;;5.30;99.90;;;;;;5016499;28;20644;-70
2021/04/17 04:36:17;;;;;;;9.57;8.00;;;5.30;99.90;;;;;;5016576;28;20242;-70
2021/04/17 04:38:43;;;;;;;9.93;8.30;;;5.30;99.90;;;;;;5018608;28;20230;-71
2021/04/17 04:41:08;;;;;;;9.33;8.13;;;5.30;99.90;;;;;;5017018;28;20220;-71
2021/04/17 04:43:34;;;;;;;9.30;8.30;;;5.20;99.90;;;;;;5014469;28;20181;-69
2021/04/17 04:46:00;;;;;;;11.60;8.80;;;5.20;99.90;;;;;;5021501;28;20761;-72
2021/04/17 04:48:25;;;;;;;9.10;8.10;;;5.30;99.90;;;;;;5018953;28;20186;-72
2021/04/17 04:50:51;;;;;;;9.70;8.13;;;5.30;99.90;;;;;;5022807;28;20203;-70
2021/04/17 04:53:17;;;;;;;9.50;8.60;;;5.20;99.90;;;;;;5016171;28;20719;-70
2021/04/17 04:55:43;;;;;;;14.97;9.63;;;5.20;99.90;;;;;;5016293;28;20236;-71
2021/04/17 04:58:08;;;;;;;12.07;8.60;;;5.10;99.90;;;;;;5011194;28;20478;-70
2021/04/17 05:00:34;;;;;;;10.47;8.47;;;5.10;99.90;;;;;;5018744;28;20615;-70
2021/04/17 05:03:00;;;;;;;9.43;8.40;;;5.10;99.90;;;;;;5017962;28;20216;-69
2021/04/17 05:05:25;;;;;;;11.27;8.43;;;5.10;99.90;;;;;;5019970;28;20224;-71
2021/04/17 05:07:51;;;;;;;10.63;8.90;;;5.10;99.90;;;;;;5017312;28;20215;-71
2021/04/17 05:10:16;;;;;;;11.00;8.63;;;5.10;99.90;;;;;;5018300;28;20197;-68
2021/04/17 05:12:42;;;;;;;9.20;8.30;;;5.10;99.90;;;;;;5017397;28;20615;-72
2021/04/17 05:15:08;;;;;;;9.77;8.37;;;5.10;99.90;;;;;;5015071;28;20217;-70
2021/04/17 05:17:34;;;;;;;10.97;8.77;;;5.10;99.90;;;;;;5018022;28;20563;-71
2021/04/17 05:19:59;;;;;;;9.03;8.13;;;5.10;99.90;;;;;;5019944;28;20446;-70
2021/04/17 05:22:25;;;;;;;13.20;9.00;;;5.10;99.90;;;;;;5011834;28;20633;-70
2021/04/17 05:24:51;;;;;;;10.50;8.30;;;5.10;99.90;;;;;;5011192;28;20216;-70
2021/04/17 05:27:17;;;;;;;10.27;8.70;;;5.10;99.90;;;;;;5017270;28;20223;-71
2021/04/17 05:29:43;;;;;;;9.60;8.57;;;5.10;99.90;;;;;;5019323;28;20435;-70
2021/04/17 05:32:09;;;;;;;12.70;9.20;;;5.20;99.90;;;;;;5017160;28;20440;-70
2021/04/17 05:34:35;;;;;;;9.90;8.03;;;5.20;99.90;;;;;;5015168;28;20185;-71
2021/04/17 05:37:01;;;;;;;10.53;8.30;;;5.20;99.90;;;;;;5016112;28;20604;-70
2021/04/17 05:39:27;;;;;;;11.43;9.10;;;5.30;99.90;;;;;;5019552;28;20427;-70
2021/04/17 05:41:53;;;;;;;11.30;8.97;;;5.40;99.90;;;;;;5016027;28;20216;-70
2021/04/17 05:44:19;;;;;;;11.80;9.27;;;5.40;99.90;;;;;;5004028;28;20769;-71
2021/04/17 05:46:44;;;;;;;11.10;9.10;;;5.50;99.90;;;;;;5017779;28;20288;-72
2021/04/17 05:49:11;;;;;;;11.17;9.17;;;5.50;99.90;;;;;;5016996;28;20173;-72
2021/04/17 05:51:40;;;;;;;10.60;8.97;;;5.60;99.90;;;;;;5012608;28;20244;-71
2021/04/17 05:54:07;;;;;;;12.00;8.30;;;5.60;99.90;;;;;;5016169;28;20966;-71
2021/04/17 05:56:32;;;;;;;12.97;9.80;;;5.60;99.90;;;;;;5015359;28;20876;-70
2021/04/17 05:58:59;;;;;;;11.20;10.03;;;5.60;99.90;;;;;;5016048;28;20432;-71
2021/04/17 06:01:25;;;;;;;10.13;9.03;;;5.60;99.90;;;;;;5013780;28;20683;-71
2021/04/17 06:03:51;;;;;;;9.97;8.93;;;5.70;99.90;;;;;;5018690;28;20764;-71
2021/04/17 06:06:17;;;;;;;13.37;9.13;;;5.80;99.90;;;;;;5019586;28;20454;-70
2021/04/17 06:08:43;;;;;;;10.70;9.07;;;5.80;99.90;;;;;;5015046;28;20305;-70
2021/04/17 06:11:09;;;;;;;14.70;10.50;;;5.90;99.90;;;;;;5014715;28;20439;-71
2021/04/17 06:13:35;;;;;;;12.23;9.13;;;6.00;99.90;;;;;;5017115;28;20424;-71
2021/04/17 06:16:04;;;;;;;12.27;8.93;;;6.10;99.90;;;;;;5015509;28;20573;-70
2021/04/17 06:18:30;;;;;;;12.77;10.00;;;6.20;99.90;;;;;;5012614;28;20440;-71
2021/04/17 06:20:55;;;;;;;11.27;10.03;;;6.30;99.90;;;;;;5020049;28;22279;-71
2021/04/17 06:23:21;;;;;;;11.27;9.20;;;6.40;99.90;;;;;;5018772;28;20684;-72
2021/04/17 06:25:47;;;;;;;12.63;9.47;;;6.40;99.90;;;;;;5017316;28;20678;-71
2021/04/17 06:28:12;;;;;;;11.37;9.03;;;6.50;99.90;;;;;;5013901;28;20193;-71
2021/04/17 06:30:38;;;;;;;10.40;8.37;;;6.60;99.90;;;;;;5016706;28;20276;-70
2021/04/17 06:33:04;;;;;;;11.77;9.90;;;6.70;99.90;;;;;;5013442;28;20203;-72
2021/04/17 06:35:30;;;;;;;16.37;8.93;;;6.80;99.90;;;;;;4996862;28;20237;-72
2021/04/17 06:37:57;;;;;;;16.30;8.67;;;6.90;99.90;;;;;;5010685;28;20452;-72
2021/04/17 06:40:22;;;;;;;16.53;10.37;;;7.10;99.90;;;;;;5008716;28;21152;-71
2021/04/17 06:42:50;;;;;;;11.67;8.70;;;7.10;99.90;;;;;;5011891;28;20466;-72
2021/04/17 06:45:17;;;;;;;12.60;9.33;;;7.20;99.90;;;;;;5011408;28;20211;-69
2021/04/17 06:47:43;;;;;;;16.47;10.03;;;7.20;99.90;;;;;;5010842;28;20937;-70
2021/04/17 06:50:09;;;;;;;13.73;10.60;;;7.30;99.90;;;;;;5014810;28;20453;-74
2021/04/17 06:52:37;;;;;;;9.63;8.40;;;7.50;99.90;;;;;;5010871;28;20181;-71
2021/04/17 06:55:06;;;;;;;10.23;9.13;;;7.60;99.90;;;;;;5011853;28;20474;-69
2021/04/17 06:57:32;;;;;;;13.70;11.13;;;7.70;99.90;;;;;;5008196;28;20459;-72
2021/04/17 07:00:00;;;;;;;9.70;8.70;;;7.90;99.90;;;;;;5010349;28;20956;-70
2021/04/17 07:02:26;;;;;;;9.17;8.23;;;8.00;99.90;;;;;;5010514;28;20482;-71
2021/04/17 07:04:53;;;;;;;11.53;9.33;;;8.10;99.90;;;;;;5006843;28;20610;-69
2021/04/17 07:07:19;;;;;;;11.83;10.60;;;8.20;99.90;;;;;;5006517;28;20475;-69
2021/04/17 07:09:44;;;;;;;10.60;8.80;;;8.30;99.90;;;;;;5008866;28;20486;-71
2021/04/17 07:12:11;;;;;;;11.60;9.40;;;8.40;99.90;;;;;;5009751;28;20533;-70
2021/04/17 07:14:45;;;;;;;10.30;9.20;;;8.50;99.90;;;;;;5013564;28;20227;-71
2021/04/17 07:17:10;;;;;;;10.73;9.07;;;8.60;99.90;;;;;;5018567;28;20625;-71
2021/04/17 07:19:50;;;;;;;11.13;8.87;;;8.80;99.90;;;;;;5014278;28;20532;-70
2021/04/17 07:22:18;;;;;;;9.03;8.10;;;8.90;99.90;;;;;;5002854;28;20216;-71
2021/04/17 07:24:45;;;;;;;11.03;9.43;;;9.10;99.90;;;;;;5004772;28;20515;-71
2021/04/17 07:27:35;;;;;;;9.47;8.47;;;9.30;99.90;;;;;;5005673;28;21162;-69
2021/04/17 07:30:05;;;;;;;10.80;8.30;;;9.40;99.90;;;;;;5010169;28;20947;-70
2021/04/17 07:32:30;;;;;;;10.70;8.20;;;9.60;99.90;;;;;;5007508;28;20446;-70
2021/04/17 07:35:21;;;;;;;8.83;7.33;;;9.70;99.90;;;;;;5008392;28;20467;-70
2021/04/17 07:37:49;;;;;;;9.63;7.37;;;9.80;99.90;;;;;;5014848;28;20784;-71
2021/04/17 07:40:22;;;;;;;14.27;7.80;;;9.80;99.90;;;;;;5017567;28;20474;-70
2021/04/17 07:42:54;;;;;;;10.30;7.27;;;9.80;99.90;;;;;;5010401;28;20486;-70
2021/04/17 07:45:29;;;;;;;8.60;7.57;;;9.90;99.90;;;;;;5009972;28;20847;-71
2021/04/17 07:48:19;;;;;;;8.07;7.27;;;9.90;99.90;;;;;;5014302;28;20431;-71
2021/04/17 07:50:45;;;;;;;8.77;7.27;;;9.90;99.90;;;;;;5013133;28;20443;-70
2021/04/17 07:53:31;;;;;;;7.90;6.93;;;9.90;99.90;;;;;;5013716;28;20465;-75
2021/04/17 07:56:16;;;;;;;8.20;7.17;;;10.00;99.90;;;;;;5011032;28;20533;-74
2021/04/17 07:58:55;;;;;;;8.67;5.97;;;10.10;99.90;;;;;;5014984;28;20806;-71
2021/04/17 08:01:22;;;;;;;6.73;6.10;;;10.30;99.90;;;;;;5012015;28;20480;-71
2021/04/17 08:03:48;;;;;;;7.50;6.80;;;10.30;99.90;;;;;;5012535;28;21127;-70
2021/04/17 08:06:17;;;;;;;6.90;6.10;;;10.30;99.90;;;;;;5017810;28;20467;-72
2021/04/17 08:08:43;;;;;;;6.50;5.80;;;10.30;99.90;;;;;;5021786;28;20184;-72
2021/04/17 08:11:12;;;;;;;6.30;5.70;;;10.30;99.90;;;;;;5018279;28;20915;-71
2021/04/17 08:13:40;;;;;;;7.00;6.10;;;10.40;99.90;;;;;;5015996;28;20466;-71
2021/04/17 08:16:08;;;;;;;6.80;6.10;;;10.40;99.90;;;;;;5016015;28;20551;-70
2021/04/17 08:18:35;;;;;;;6.43;5.83;;;10.40;99.90;;;;;;5019387;28;20470;-71
2021/04/17 08:21:02;;;;;;;6.10;5.50;;;10.50;99.90;;;;;;5017555;28;20430;-71
2021/04/17 08:23:29;;;;;;;6.67;6.07;;;10.70;99.90;;;;;;5019294;28;20447;-71
2021/04/17 08:25:56;;;;;;;7.17;6.23;;;10.90;99.90;;;;;;5018974;28;20961;-71
2021/04/17 08:28:23;;;;;;;6.93;6.23;;;11.00;99.90;;;;;;5018032;28;20435;-71
2021/04/17 08:30:49;;;;;;;10.60;6.63;;;11.10;99.90;;;;;;5019919;28;20815;-71
2021/04/17 08:33:19;;;;;;;8.70;6.40;;;11.20;99.90;;;;;;5019492;28;20795;-72
2021/04/17 08:35:45;;;;;;;8.87;7.00;;;11.30;99.90;;;;;;5021059;28;20936;-69
2021/04/17 08:38:13;;;;;;;7.67;6.63;;;11.30;99.90;;;;;;5018469;28;20474;-70
2021/04/17 08:40:43;;;;;;;6.83;6.13;;;11.30;99.90;;;;;;5019508;28;21080;-69
2021/04/17 08:43:15;;;;;;;7.20;6.50;;;11.50;99.90;;;;;;5016385;28;20537;-71
2021/04/17 08:46:08;;;;;;;9.53;6.70;;;11.80;99.90;;;;;;5014605;28;20900;-71
2021/04/17 08:48:55;;;;;;;7.87;7.07;;;11.90;99.90;;;;;;5007496;28;20448;-71
2021/04/17 08:51:20;;;;;;;7.67;6.93;;;12.20;99.90;;;;;;5017221;28;20427;-71
2021/04/17 08:53:46;;;;;;;7.80;6.80;;;12.40;99.90;;;;;;5014294;28;20473;-71
2021/04/17 08:56:12;;;;;;;6.53;5.93;;;12.50;99.90;;;;;;5013875;28;20212;-71
2021/04/17 08:58:38;;;;;;;7.10;5.97;;;12.80;99.90;;;;;;5018520;28;20263;-72
2021/04/17 09:01:10;;;;;;;6.90;6.20;;;13.10;99.90;;;;;;5015939;28;20208;-70
2021/04/17 09:03:45;;;;;;;6.90;6.17;;;13.30;99.70;;;;;;5006471;28;20182;-73
2021/04/17 09:06:22;;;;;;;7.60;6.90;;;13.60;98.80;;;;;;5013846;28;20954;-72
2021/04/17 09:09:20;;;;;;;7.70;6.53;;;14.00;98.30;;;;;;5011263;28;20428;-71
2021/04/17 09:11:50;;;;;;;6.97;6.27;;;14.20;95.50;;;;;;5010160;28;20831;-70
2021/04/17 09:14:32;;;;;;;6.10;5.50;;;13.70;93.20;;;;;;4997980;28;21918;-68
2021/04/17 09:17:03;;;;;;;6.10;5.50;;;13.50;92.00;;;;;;4998211;28;20531;-69
2021/04/17 09:19:38;;;;;;;6.23;5.63;;;13.80;91.70;;;;;;5000517;28;20437;-69
2021/04/17 09:22:24;;;;;;;6.70;6.00;;;14.40;91.20;;;;;;4999904;28;20471;-69
2021/04/17 09:24:51;;;;;;;6.87;6.23;;;15.40;90.10;;;;;;4997012;28;20470;-68
2021/04/17 09:27:40;;;;;;;7.57;6.87;;;16.80;89.80;;;;;;4997931;28;20587;-69
2021/04/17 09:30:19;;;;;;;8.00;7.20;;;18.60;82.10;;;;;;5000892;28;20435;-74
2021/04/17 09:32:50;;;;;;;7.03;6.40;;;18.50;72.40;;;;;;4996414;28;20594;-71
2021/04/17 09:35:24;;;;;;;9.23;6.43;;;20.00;70.60;;;;;;5009633;28;20475;-71
2021/04/17 09:38:02;;;;;;;7.23;6.47;;;22.20;61.50;;;;;;5012594;28;20888;-70
2021/04/17 09:40:43;;;;;;;10.50;8.53;;;24.50;53.70;;;;;;5003116;28;20688;-71
2021/04/17 09:43:25;;;;;;;9.00;7.30;;;25.40;47.20;;;;;;5003537;28;20456;-70
2021/04/17 09:45:53;;;;;;;6.17;5.47;;;25.90;45.30;;;;;;5011665;28;20956;-69
2021/04/17 09:48:21;;;;;;;6.60;6.00;;;24.80;42.50;;;;;;5012921;28;20491;-70
2021/04/17 09:50:49;;;;;;;6.30;5.80;;;22.90;43.20;;;;;;5011062;28;20440;-69
2021/04/17 09:53:22;;;;;;;6.63;5.73;;;23.50;45.20;;;;;;5016529;28;20475;-70
2021/04/17 09:55:59;;;;;;;7.53;6.37;;;24.70;43.50;;;;;;5020544;28;20454;-69
2021/04/17 09:58:40;;;;;;;6.63;6.03;;;25.50;41.70;;;;;;5013335;28;20942;-70
2021/04/17 10:01:11;;;;;;;6.07;5.47;;;25.50;40.30;;;;;;5016925;28;20530;-70
2021/04/17 10:03:38;;;;;;;9.90;6.30;;;25.30;40.40;;;;;;5008380;28;20443;-70
2021/04/17 10:06:21;;;;;;;5.83;5.30;;;25.00;39.50;;;;;;5014498;28;20456;-72
2021/04/17 10:08:47;;;;;;;6.70;6.20;;;24.00;39.60;;;;;;5018184;28;20431;-68
2021/04/17 10:11:31;;;;;;;11.67;6.20;;;23.10;39.90;;;;;;5015402;28;20445;-70
2021/04/17 10:13:57;;;;;;;14.57;8.47;;;23.30;40.10;;;;;;5006202;28;20189;-72
2021/04/17 10:16:29;;;;;;;9.80;6.30;;;23.40;39.80;;;;;;5016543;28;21081;-70
2021/04/17 10:18:55;;;;;;;7.40;6.70;;;23.10;39.30;;;;;;5020823;28;20481;-69
2021/04/17 10:21:29;;;;;;;7.93;6.73;;;22.20;38.60;;;;;;5016569;28;20423;-70
2021/04/17 10:24:24;;;;;;;6.80;6.20;;;21.60;40.20;;;;;;5013949;28;20986;-69
2021/04/17 10:26:55;;;;;;;6.23;5.63;;;21.40;41.50;;;;;;5008938;28;20444;-70
2021/04/17 10:29:42;;;;;;;7.43;5.60;;;20.80;40.50;;;;;;5017260;28;20906;-71
2021/04/17 10:32:13;;;;;;;5.83;5.33;;;20.30;41.60;;;;;;5018123;28;20448;-70
2021/04/17 10:34:40;;;;;;;5.60;4.90;;;20.10;42.30;;;;;;5015645;28;20432;-70
2021/04/17 10:37:13;;;;;;;5.70;5.07;;;19.80;41.90;;;;;;5017312;28;20435;-71
2021/04/17 10:40:06;;;;;;;5.87;5.27;;;19.60;42.70;;;;;;5013932;28;20513;-71
2021/04/17 10:42:54;;;;;;;6.93;6.13;;;19.60;43.20;;;;;;5018227;28;20458;-69
2021/04/17 10:45:30;;;;;;;6.40;5.80;;;19.20;43.40;;;;;;5016739;28;20435;-72
2021/04/17 10:48:09;;;;;;;6.60;6.00;;;18.80;44.10;;;;;;5011324;28;20466;-71
2021/04/17 10:50:41;;;;;;;7.60;6.37;;;18.30;43.80;;;;;;5016132;28;20432;-70
2021/04/17 10:53:14;;;;;;;6.63;5.77;;;18.00;44.30;;;;;;5013852;28;20435;-70
2021/04/17 10:55:45;;;;;;;6.37;5.77;;;18.00;44.20;;;;;;5015823;28;20469;-71
2021/04/17 10:58:22;;;;;;;6.47;5.70;;;18.40;43.60;;;;;;5013504;28;20422;-72
2021/04/17 11:00:50;;;;;;;8.43;6.07;;;19.20;43.30;;;;;;5015412;28;20459;-69
2021/04/17 11:03:21;;;;;;;6.13;5.63;;;20.90;42.90;;;;;;5017356;28;20456;-69
2021/04/17 11:05:47;;;;;;;5.83;5.33;;;22.40;41.60;;;;;;5011349;28;20482;-71
2021/04/17 11:08:21;;;;;;;6.53;5.93;;;24.10;40.10;;;;;;5014060;28;20432;-70
2021/04/17 11:10:46;;;;;;;6.80;6.20;;;25.40;39.30;;;;;;5017453;28;20172;-71
2021/04/17 11:13:31;;;;;;;6.40;5.90;;;25.60;37.80;;;;;;5013798;28;20482;-70
2021/04/17 11:15:59;;;;;;;5.60;5.10;;;24.60;35.90;;;;;;5016481;28;20315;-70
2021/04/17 11:18:30;;;;;;;6.43;5.83;;;23.80;35.70;;;;;;5018712;28;20419;-70
2021/04/17 11:20:59;;;;;;;6.87;6.27;;;22.60;36.90;;;;;;5016503;28;20477;-70
2021/04/17 11:23:41;;;;;;;9.97;6.10;;;21.70;37.50;;;;;;5015238;28;20470;-70
2021/04/17 11:26:13;;;;;;;5.50;5.07;;;20.80;39.10;;;;;;5012078;28;20446;-71
2021/04/17 11:28:42;;;;;;;7.83;6.20;;;21.10;39.20;;;;;;5014217;28;20845;-71
2021/04/17 11:31:09;;;;;;;10.20;6.10;;;20.90;39.00;;;;;;5014522;28;20539;-72
2021/04/17 11:33:35;;;;;;;6.03;5.53;;;21.30;40.30;;;;;;5015076;28;21101;-70
2021/04/17 11:36:02;;;;;;;6.80;6.20;;;25.20;39.00;;;;;;5019174;28;20459;-70
2021/04/17 11:38:28;;;;;;;6.77;6.07;;;28.90;35.80;;;;;;5013879;28;20424;-70
2021/04/17 11:40:54;;;;;;;6.60;6.00;;;32.00;33.00;;;;;;5022020;28;20419;-71
2021/04/17 11:43:20;;;;;;;7.13;6.53;;;33.70;29.60;;;;;;5021704;28;20472;-73
2021/04/17 11:45:46;;;;;;;7.57;7.07;;;35.40;28.40;;;;;;5022838;28;20303;-70
2021/04/17 11:48:11;;;;;;;7.30;6.63;;;34.00;26.60;;;;;;5017063;28;20671;-70
2021/04/17 11:50:38;;;;;;;8.60;6.00;;;30.90;27.50;;;;;;5017588;28;20439;-70
2021/04/17 11:53:04;;;;;;;5.60;5.13;;;28.40;28.60;;;;;;5020150;28;20242;-69
2021/04/17 11:55:30;;;;;;;5.97;5.20;;;26.40;30.00;;;;;;5020698;28;20443;-69
2021/04/17 11:57:56;;;;;;;5.70;5.20;;;24.90;30.60;;;;;;5019257;28;20462;-69
2021/04/17 12:00:23;;;;;;;5.63;5.13;;;23.50;31.60;;;;;;5020068;28;20211;-70
2021/04/17 12:02:48;;;;;;;6.40;5.77;;;22.50;32.30;;;;;;5016745;28;20209;-71
2021/04/17 12:05:14;;;;;;;6.50;5.93;;;21.90;33.30;;;;;;5020481;28;20474;-70
2021/04/17 12:07:40;;;;;;;6.40;5.30;;;22.40;33.80;;;;;;5017873;28;20595;-70
2021/04/17 12:10:07;;;;;;;5.83;5.13;;;22.90;33.70;;;;;;5023407;28;20271;-71
2021/04/17 12:12:33;;;;;;;5.90;5.40;;;23.30;33.10;;;;;;5017062;28;20184;-69
2021/04/17 12:14:58;;;;;;;5.80;5.33;;;23.40;32.60;;;;;;5018211;28;20538;-70
2021/04/17 12:17:24;;;;;;;6.00;5.40;;;24.30;33.00;;;;;;5018753;28;20220;-71
2021/04/17 12:19:50;;;;;;;5.37;4.90;;;25.30;32.20;;;;;;5008304;28;20232;-70
2021/04/17 12:22:16;;;;;;;5.73;5.33;;;25.30;31.10;;;;;;5019498;28;20635;-70
2021/04/17 12:24:42;;;;;;;5.47;4.97;;;25.10;30.50;;;;;;5021702;28;20430;-70
2021/04/17 12:27:08;;;;;;;5.40;4.90;;;25.50;30.40;;;;;;5018534;28;20443;-70
2021/04/17 12:29:33;;;;;;;6.33;5.83;;;24.50;30.60;;;;;;5022648;28;20192;-71
2021/04/17 12:31:59;;;;;;;6.37;5.10;;;23.40;30.90;;;;;;5021859;28;20200;-71
2021/04/17 12:34:25;;;;;;;7.87;5.30;;;22.90;32.40;;;;;;5009317;28;20969;-70
2021/04/17 12:36:50;;;;;;;6.20;5.70;;;23.30;32.70;;;;;;5008903;28;20204;-70
2021/04/17 12:39:16;;;;;;;6.27;5.57;;;23.40;32.30;;;;;;5022283;28;20280;-70
2021/04/17 12:41:42;;;;;;;5.67;4.97;;;22.70;32.20;;;;;;5019067;28;20205;-73
2021/04/17 12:44:10;;;;;;;6.00;5.50;;;22.00;32.80;;;;;;5013156;28;20188;-70
2021/04/17 12:46:43;;;;;;;6.57;5.97;;;20.80;32.90;;;;;;5015187;28;20212;-72
2021/04/17 12:49:09;;;;;;;6.07;5.43;;;20.40;33.90;;;;;;5023945;28;20621;-70
2021/04/17 12:51:35;;;;;;;6.63;6.03;;;20.70;34.80;;;;;;5013940;28;20490;-69
2021/04/17 12:54:01;;;;;;;7.00;6.43;;;20.90;34.00;;;;;;5017951;28;20435;-70
2021/04/17 12:56:26;;;;;;;5.63;5.17;;;20.30;34.20;;;;;;5016375;28;20212;-70
2021/04/17 12:58:56;;;;;;;5.80;5.30;;;19.70;34.60;;;;;;5020168;28;20239;-70